Time;durP1;ratioP1;P1;durP2;ratioP2;P2;SDS_P1;SDS_P2;PMS_P1;PMS_P2;Temp;Humidity;BMP_temperature;BMP_pressure;BME280_temperature;BME280_humidity;BME280_pressure;Samples;Min_cycle;Max_cycle;Signal;HPM_P1;HPM_P2
2022/09/24 00:00:39;;;;;;;33.97;17.90;;;;;;;6.63;100.00;100410.72;5035964;28;20029;-85
2022/09/24 00:03:04;;;;;;;32.50;16.98;;;;;;;6.61;100.00;100404.69;5037110;28;20036;-83
2022/09/24 00:05:35;;;;;;;29.13;16.73;;;;;;;6.59;100.00;100402.31;5036100;28;20029;-83
2022/09/24 00:08:01;;;;;;;31.33;17.23;;;;;;;6.56;100.00;100405.28;5020146;28;20029;-83
2022/09/24 00:10:26;;;;;;;26.83;16.73;;;;;;;6.51;100.00;100400.22;5036116;28;20206;-82
2022/09/24 00:12:52;;;;;;;30.15;15.82;;;;;;;6.50;100.00;100402.25;5018200;28;20052;-81
2022/09/24 00:15:17;;;;;;;28.67;16.77;;;;;;;6.44;100.00;100397.63;5033642;28;20458;-81
2022/09/24 00:17:42;;;;;;;27.00;15.85;;;;;;;6.40;100.00;100394.13;5033244;28;20087;-81
2022/09/24 00:20:08;;;;;;;28.75;15.60;;;;;;;6.37;100.00;100393.03;5033137;28;20502;-84
2022/09/24 00:22:33;;;;;;;26.95;14.60;;;;;;;6.36;100.00;100382.13;5034917;28;20171;-82
2022/09/24 00:27:42;;;;;;;28.33;15.00;;;;;;;6.43;100.00;100393.22;5036256;28;20099;-84
2022/09/24 00:30:08;;;;;;;24.75;14.93;;;;;;;6.46;100.00;100387.41;5017770;28;20033;-81
2022/09/24 00:32:33;;;;;;;24.20;14.88;;;;;;;6.53;100.00;100387.16;5035620;28;20053;-83
2022/09/24 00:34:59;;;;;;;26.58;15.05;;;;;;;6.62;100.00;100392.88;5036913;28;20033;-82
2022/09/24 00:37:24;;;;;;;23.45;13.80;;;;;;;6.69;100.00;100386.13;5034846;28;20486;-82
2022/09/24 00:39:50;;;;;;;28.33;14.45;;;;;;;6.72;100.00;100388.06;5033428;28;20029;-83
2022/09/24 00:42:18;;;;;;;27.23;15.43;;;;;;;6.75;100.00;100381.44;5032724;28;20094;-82
2022/09/24 00:44:43;;;;;;;22.75;14.80;;;;;;;6.76;100.00;100374.50;5033903;28;20029;-83
2022/09/24 00:47:34;;;;;;;28.13;15.65;;;;;;;6.78;100.00;100371.22;5036705;28;20033;-83
2022/09/24 00:50:18;;;;;;;24.13;15.15;;;;;;;6.72;100.00;100376.69;5018017;28;20025;-82
2022/09/24 00:52:58;;;;;;;30.77;15.05;;;;;;;6.72;100.00;100375.91;5035219;28;20029;-84
2022/09/24 00:55:25;;;;;;;25.77;15.35;;;;;;;6.68;100.00;100371.13;5035203;28;20032;-83
2022/09/24 00:57:59;;;;;;;26.02;15.73;;;;;;;6.60;100.00;100367.00;5036150;28;20040;-81
2022/09/24 01:00:25;;;;;;;27.98;15.88;;;;;;;6.60;100.00;100357.69;5018256;28;20029;-82
2022/09/24 01:02:55;;;;;;;23.30;14.63;;;;;;;6.59;100.00;100365.41;5036776;28;20407;-85
2022/09/24 01:05:21;;;;;;;26.60;15.20;;;;;;;6.58;100.00;100357.38;5041744;28;20459;-84
2022/09/24 01:07:47;;;;;;;24.27;15.23;;;;;;;6.60;100.00;100357.69;5039079;28;20112;-85
2022/09/24 01:10:46;;;;;;;25.02;14.98;;;;;;;6.59;100.00;100347.56;5017964;28;20467;-85
2022/09/24 01:13:09;;;;;;;25.13;14.57;;;;;;;6.59;100.00;100348.38;5035501;28;20398;-84
2022/09/24 01:15:52;;;;;;;28.40;15.35;;;;;;;6.58;100.00;100349.63;5024782;28;20140;-84
2022/09/24 01:18:39;;;;;;;26.75;14.73;;;;;;;6.58;100.00;100349.63;5019027;28;20044;-85
2022/09/24 01:21:13;;;;;;;24.48;14.23;;;;;;;6.58;100.00;100352.47;5034723;28;20045;-84
2022/09/24 01:24:12;;;;;;;23.63;15.32;;;;;;;6.58;100.00;100352.47;5036126;28;20030;-84
2022/09/24 01:26:42;;;;;;;25.77;15.65;;;;;;;6.58;100.00;100349.63;5036146;28;20175;-84
2022/09/24 01:29:26;;;;;;;24.80;15.77;;;;;;;6.62;100.00;100349.50;5018204;28;20029;-84
2022/09/24 01:32:06;;;;;;;22.10;15.13;;;;;;;6.62;100.00;100350.31;5018192;28;20022;-85
2022/09/24 01:34:48;;;;;;;27.88;14.70;;;;;;;6.60;100.00;100346.31;5018071;28;20029;-85
2022/09/24 01:37:15;;;;;;;23.75;15.18;;;;;;;6.64;100.00;100342.09;5034832;28;20433;-85
2022/09/24 01:39:41;;;;;;;24.77;14.25;;;;;;;6.63;100.00;100334.81;5034574;28;20455;-84
2022/09/24 01:42:09;;;;;;;25.48;15.30;;;;;;;6.70;100.00;100333.75;5034836;28;20068;-85
2022/09/24 01:44:36;;;;;;;26.25;14.77;;;;;;;6.77;100.00;100333.50;5044741;28;20002;-86
2022/09/24 01:47:05;;;;;;;25.33;14.25;;;;;;;6.80;100.00;100335.41;5034473;28;20021;-86
2022/09/24 01:49:31;;;;;;;29.17;15.70;;;;;;;6.85;100.00;100331.94;5033473;28;20025;-87
2022/09/24 01:51:57;;;;;;;21.63;14.07;;;;;;;6.88;100.00;100327.41;5032304;28;20067;-85
2022/09/24 01:54:29;;;;;;;29.15;15.52;;;;;;;6.95;100.00;100319.38;5056898;28;20018;-83
2022/09/24 01:57:11;;;;;;;23.85;14.43;;;;;;;7.04;100.00;100327.13;5055597;28;20028;-85
2022/09/24 01:59:45;;;;;;;29.23;16.08;;;;;;;7.09;100.00;100323.66;5052982;28;20051;-85
2022/09/24 02:02:15;;;;;;;26.83;15.50;;;;;;;7.11;100.00;100329.69;5034026;28;20028;-76
2022/09/24 02:04:44;;;;;;;23.33;14.57;;;;;;;7.13;100.00;100327.16;5037890;28;20045;-80
2022/09/24 02:07:15;;;;;;;21.63;15.02;;;;;;;7.20;100.00;100328.91;5052453;28;20068;-80
2022/09/24 02:09:42;;;;;;;24.05;14.73;;;;;;;7.23;100.00;100325.13;5048319;28;20410;-85
2022/09/24 02:12:16;;;;;;;25.60;15.05;;;;;;;7.29;100.00;100326.09;5053503;28;20075;-80
2022/09/24 02:15:00;;;;;;;24.23;14.90;;;;;;;7.32;100.00;100317.44;5055451;28;20037;-83
2022/09/24 02:17:29;;;;;;;25.42;14.77;;;;;;;7.30;100.00;100322.00;5038182;28;20016;-84
2022/09/24 02:19:55;;;;;;;24.73;14.57;;;;;;;7.38;100.00;100323.28;5039984;28;20010;-82
2022/09/24 02:22:22;;;;;;;24.17;15.00;;;;;;;7.43;100.00;100331.97;5031640;28;20141;-80
2022/09/24 02:24:53;;;;;;;26.98;14.48;;;;;;;7.41;100.00;100314.63;5053070;28;20025;-83
2022/09/24 02:27:19;;;;;;;24.42;14.18;;;;;;;7.40;100.00;100315.88;5052988;28;20251;-79
2022/09/24 02:29:45;;;;;;;24.23;15.05;;;;;;;7.41;100.00;100306.09;5030830;28;20060;-82
2022/09/24 02:32:14;;;;;;;23.38;14.23;;;;;;;7.43;100.00;100306.38;5046828;28;20548;-84
2022/09/24 02:34:47;;;;;;;27.63;16.55;;;;;;;7.42;100.00;100309.72;5052187;28;20018;-86
2022/09/24 02:37:15;;;;;;;26.27;15.23;;;;;;;7.45;100.00;100320.13;5055128;28;20124;-86
2022/09/24 02:39:41;;;;;;;26.02;15.35;;;;;;;7.41;100.00;100308.94;5034713;28;20053;-87
2022/09/24 02:42:09;;;;;;;21.73;13.55;;;;;;;7.41;100.00;100302.44;5035209;28;20040;-86
2022/09/24 02:44:37;;;;;;;28.40;14.95;;;;;;;7.46;100.00;100302.63;5048629;28;20025;-86
2022/09/24 02:47:03;;;;;;;24.90;14.32;;;;;;;7.49;100.00;100303.72;5021684;28;20032;-73
2022/09/24 02:49:29;;;;;;;21.67;13.77;;;;;;;7.46;100.00;100296.13;5015706;28;20029;-73
2022/09/24 02:51:54;;;;;;;24.70;14.90;;;;;;;7.47;100.00;100298.50;5032246;28;20104;-74
2022/09/24 02:54:21;;;;;;;22.92;14.52;;;;;;;7.46;100.00;100293.28;5032200;28;20132;-74
2022/09/24 02:56:46;;;;;;;22.05;14.57;;;;;;;7.42;100.00;100282.06;5033233;28;20053;-74
2022/09/24 02:59:12;;;;;;;21.30;13.63;;;;;;;7.43;100.00;100292.16;5031974;28;20147;-74
2022/09/24 03:01:37;;;;;;;24.42;14.38;;;;;;;7.42;100.00;100293.44;5031969;28;20107;-73
2022/09/24 03:04:03;;;;;;;21.92;13.82;;;;;;;7.43;100.00;100294.22;5033294;28;20437;-74
2022/09/24 03:06:29;;;;;;;23.92;14.25;;;;;;;7.43;100.00;100297.84;5015608;28;20112;-74
2022/09/24 03:08:54;;;;;;;26.27;14.15;;;;;;;7.47;100.00;100303.41;5015736;28;20022;-74
2022/09/24 03:11:21;;;;;;;24.63;13.55;;;;;;;7.50;100.00;100299.63;5032050;28;20083;-74
2022/09/24 03:13:46;;;;;;;21.15;13.68;;;;;;;7.44;100.00;100285.22;5032105;28;20060;-74
2022/09/24 03:16:11;;;;;;;23.13;13.98;;;;;;;7.53;100.00;100299.44;5032251;28;20100;-75
2022/09/24 03:18:37;;;;;;;22.70;13.57;;;;;;;7.54;100.00;100291.72;5015383;28;20472;-74
2022/09/24 03:21:05;;;;;;;27.25;13.73;;;;;;;7.56;100.00;100294.88;5031790;28;20048;-75
2022/09/24 03:23:30;;;;;;;23.98;15.05;;;;;;;7.55;100.00;100290.47;5015282;28;20124;-74
2022/09/24 03:25:56;;;;;;;22.23;13.75;;;;;;;7.54;100.00;100298.19;5031830;28;20152;-74
2022/09/24 03:28:22;;;;;;;21.90;14.85;;;;;;;7.57;100.00;100295.69;5031599;28;20033;-74
2022/09/24 03:30:59;;;;;;;29.35;13.55;;;;;;;7.57;100.00;100290.00;5015353;28;20021;-73
2022/09/24 03:33:29;;;;;;;22.10;14.55;;;;;;;7.53;100.00;100293.75;5032056;28;20029;-74
2022/09/24 03:36:22;;;;;;;23.27;13.85;;;;;;;7.51;100.00;100296.31;5035246;28;20037;-73
2022/09/24 03:38:48;;;;;;;23.40;13.60;;;;;;;7.48;100.00;100291.53;5018610;28;20426;-74
2022/09/24 03:41:14;;;;;;;21.95;12.85;;;;;;;7.47;100.00;100289.19;5035306;28;20029;-74
2022/09/24 03:43:40;;;;;;;20.25;13.05;;;;;;;7.46;100.00;100285.56;5019181;28;20033;-74
2022/09/24 03:46:06;;;;;;;23.05;15.00;;;;;;;7.45;100.00;100278.28;5019239;28;20029;-74
2022/09/24 03:48:34;;;;;;;22.75;13.82;;;;;;;7.43;100.00;100277.97;5019586;28;20026;-74
2022/09/24 03:51:04;;;;;;;21.50;14.52;;;;;;;7.45;100.00;100280.34;5019253;28;20025;-73
2022/09/24 03:53:30;;;;;;;25.85;13.50;;;;;;;7.47;100.00;100281.44;5035570;28;20030;-74
2022/09/24 03:55:56;;;;;;;21.90;14.57;;;;;;;7.45;100.00;100271.81;5035593;28;20014;-75
2022/09/24 03:58:22;;;;;;;22.35;13.50;;;;;;;7.52;100.00;100274.34;5035818;28;20036;-74
2022/09/24 04:00:51;;;;;;;21.70;13.27;;;;;;;7.56;100.00;100274.19;5018741;28;20029;-74
2022/09/24 04:03:16;;;;;;;19.10;12.98;;;;;;;7.57;100.00;100273.69;5018660;28;20025;-75
2022/09/24 04:05:42;;;;;;;22.50;13.75;;;;;;;7.56;100.00;100268.50;5018419;28;20029;-75
2022/09/24 04:08:08;;;;;;;21.80;14.35;;;;;;;7.61;100.00;100270.72;5018474;28;20386;-74
2022/09/24 04:10:33;;;;;;;24.75;14.52;;;;;;;7.56;100.00;100262.81;5035207;28;20108;-73
2022/09/24 04:12:58;;;;;;;23.60;13.63;;;;;;;7.60;100.00;100272.78;5035006;28;20489;-74
2022/09/24 04:15:24;;;;;;;23.83;14.18;;;;;;;7.39;100.00;100240.38;5034978;28;20017;-74
2022/09/24 04:17:55;;;;;;;25.13;16.33;;;;;;;7.48;100.00;100263.13;5035020;28;20036;-74
2022/09/24 04:20:22;;;;;;;26.60;16.90;;;;;;;7.53;100.00;100265.34;5017957;28;20032;-74
2022/09/24 04:22:53;;;;;;;28.33;16.00;;;;;;;7.52;100.00;100257.28;5017823;28;20279;-74
2022/09/24 04:25:19;;;;;;;29.98;17.58;;;;;;;7.52;100.00;100262.97;5017861;28;20076;-74
2022/09/24 04:27:45;;;;;;;26.42;16.25;;;;;;;7.49;100.00;100261.84;5034734;28;20029;-73
2022/09/24 04:30:14;;;;;;;25.75;13.90;;;;;;;7.44;100.00;100256.81;5036291;28;20048;-74
2022/09/24 04:32:42;;;;;;;21.58;13.48;;;;;;;7.37;100.00;100247.81;5017944;28;20059;-75
2022/09/24 04:35:08;;;;;;;21.73;13.55;;;;;;;7.38;100.00;100257.88;5017852;28;20022;-74
2022/09/24 04:37:34;;;;;;;27.65;15.10;;;;;;;7.37;100.00;100256.34;5034597;28;20103;-74
2022/09/24 04:40:02;;;;;;;29.23;14.43;;;;;;;7.38;100.00;100261.53;5034307;28;20032;-74
2022/09/24 04:42:29;;;;;;;24.30;14.57;;;;;;;7.35;100.00;100253.94;5018126;28;20030;-75
2022/09/24 04:44:54;;;;;;;21.15;13.63;;;;;;;7.37;100.00;100259.94;5017521;28;20100;-74
2022/09/24 04:47:24;;;;;;;22.35;13.65;;;;;;;7.38;100.00;100258.69;5001316;28;20133;-75
2022/09/24 04:49:51;;;;;;;19.33;13.95;;;;;;;7.38;100.00;100258.69;5018399;28;20030;-73
2022/09/24 04:52:18;;;;;;;24.00;13.68;;;;;;;7.39;100.00;100248.91;5034241;28;20033;-74
2022/09/24 04:54:46;;;;;;;23.25;13.48;;;;;;;7.38;100.00;100250.16;5001219;28;20025;-74
2022/09/24 04:57:15;;;;;;;21.23;12.98;;;;;;;7.40;100.00;100250.50;5034017;28;20052;-74
2022/09/24 04:59:43;;;;;;;23.08;13.18;;;;;;;7.42;100.00;100245.09;5001356;28;20057;-74
2022/09/24 05:02:09;;;;;;;24.80;14.77;;;;;;;7.42;100.00;100245.09;5016997;28;20041;-74
2022/09/24 05:04:36;;;;;;;20.50;12.70;;;;;;;7.45;100.00;100244.19;5035227;28;20034;-74
2022/09/24 05:07:03;;;;;;;19.48;14.20;;;;;;;7.50;100.00;100243.53;5017755;28;20041;-74
2022/09/24 05:09:30;;;;;;;22.40;12.65;;;;;;;7.53;100.00;100247.47;5000918;28;20037;-74
2022/09/24 05:12:01;;;;;;;24.20;13.32;;;;;;;7.56;100.00;100243.72;5017320;28;20025;-73
2022/09/24 05:14:26;;;;;;;25.45;13.32;;;;;;;7.63;100.00;100239.75;5016955;28;20025;-75
2022/09/24 05:16:53;;;;;;;18.42;11.85;;;;;;;7.70;100.00;100248.75;5000997;28;20120;-74
2022/09/24 05:19:19;;;;;;;20.20;12.73;;;;;;;7.74;100.00;100243.69;5017148;28;20112;-73
2022/09/24 05:21:45;;;;;;;19.33;11.55;;;;;;;7.80;100.00;100243.84;5016496;28;20200;-73
2022/09/24 05:24:12;;;;;;;21.95;13.20;;;;;;;7.87;100.00;100252.03;5034449;28;20526;-74
2022/09/24 05:29:24;;;;;;;20.15;12.27;;;;;;;7.96;100.00;100235.00;5019645;28;20044;-74
2022/09/24 05:31:51;;;;;;;19.17;11.60;;;;;;;8.04;100.00;100247.59;5032156;28;20048;-74
2022/09/24 05:34:20;;;;;;;24.30;12.70;;;;;;;8.12;100.00;100245.22;5033323;28;20021;-73
2022/09/24 05:36:46;;;;;;;28.98;14.73;;;;;;;8.13;100.00;100247.59;5019688;28;20053;-74
2022/09/24 05:39:13;;;;;;;27.25;14.57;;;;;;;8.14;100.00;100245.53;5024176;28;20049;-74
2022/09/24 05:41:39;;;;;;;23.35;13.70;;;;;;;8.13;100.00;100246.78;5033053;28;20022;-74
2022/09/24 05:44:06;;;;;;;20.38;12.77;;;;;;;8.15;100.00;100241.44;5015286;28;20389;-74
2022/09/24 05:46:32;;;;;;;19.83;11.50;;;;;;;8.19;100.00;100248.56;5032940;28;20013;-73
2022/09/24 05:48:58;;;;;;;18.70;13.02;;;;;;;8.20;100.00;100232.28;5032941;28;20559;-74
2022/09/24 05:51:24;;;;;;;20.27;11.80;;;;;;;8.28;100.00;100244.91;5014299;28;20075;-74
2022/09/24 05:53:51;;;;;;;17.05;10.50;;;;;;;8.34;100.00;100238.09;5032846;28;20394;-74
2022/09/24 05:56:21;;;;;;;28.80;12.57;;;;;;;8.39;100.00;100237.44;5032452;28;20013;-72
2022/09/24 05:58:54;;;;;;;18.83;11.75;;;;;;;8.48;100.00;100244.34;5020870;28;20049;-73
2022/09/24 06:01:19;;;;;;;23.20;11.68;;;;;;;8.50;100.00;100242.63;5006184;28;20029;-74
2022/09/24 06:03:46;;;;;;;20.20;11.57;;;;;;;8.53;100.00;100235.94;5026056;28;20017;-73
2022/09/24 06:06:13;;;;;;;16.20;10.57;;;;;;;8.65;100.00;100249.22;5013682;28;20051;-76
2022/09/24 06:08:38;;;;;;;18.50;10.32;;;;;;;8.77;100.00;100238.84;5012484;28;20493;-74
2022/09/24 06:11:13;;;;;;;15.10;10.05;;;;;;;8.98;100.00;100251.25;5014631;28;20034;-76
2022/09/24 06:13:39;;;;;;;26.80;10.63;;;;;;;9.08;100.00;100247.88;5014226;28;20100;-74
2022/09/24 06:16:07;;;;;;;28.13;10.52;;;;;;;9.27;100.00;100257.88;5013283;28;20379;-76
2022/09/24 06:18:43;;;;;;;25.38;10.20;;;;;;;9.41;100.00;100249.88;5013518;28;20033;-77
2022/09/24 06:21:14;;;;;;;19.58;9.48;;;;;;;9.61;100.00;100258.59;5045980;28;20069;-77
2022/09/24 06:23:41;;;;;;;15.18;8.57;;;;;;;9.79;100.00;100255.59;5013398;28;20032;-77
2022/09/24 06:26:10;;;;;;;12.88;7.95;;;;;;;9.96;100.00;100251.03;4980451;28;20118;-77
2022/09/24 06:28:37;;;;;;;15.57;8.82;;;;;;;10.14;100.00;100252.91;5014048;28;20371;-76
2022/09/24 06:31:11;;;;;;;16.27;8.30;;;;;;;10.30;100.00;100258.13;5012843;28;20124;-77
2022/09/24 06:33:39;;;;;;;18.75;8.88;;;;;;;10.45;100.00;100258.91;5012798;28;20113;-79
2022/09/24 06:36:04;;;;;;;19.52;8.73;;;;;;;10.60;100.00;100246.69;5012567;28;20021;-78
2022/09/24 06:38:32;;;;;;;16.85;9.35;;;;;;;10.70;100.00;100240.38;5013741;28;20074;-76
2022/09/24 06:41:00;;;;;;;13.02;7.10;;;;;;;10.90;100.00;100251.06;5014101;28;20048;-77
2022/09/24 06:43:28;;;;;;;14.73;7.00;;;;;;;11.07;100.00;100252.13;4979959;28;20398;-74
2022/09/24 06:45:55;;;;;;;14.95;6.47;;;;;;;11.24;100.00;100244.59;4996243;28;20546;-76
2022/09/24 06:48:23;;;;;;;11.98;6.82;;;;;;;11.43;100.00;100256.53;4995960;28;20511;-77
2022/09/24 06:50:51;;;;;;;7.32;6.45;;;;;;;11.62;100.00;100254.16;5012255;28;20041;-77
2022/09/24 06:53:19;;;;;;;11.15;6.35;;;;;;;11.78;100.00;100253.59;5013905;28;20022;-76
2022/09/24 06:55:46;;;;;;;12.68;6.65;;;;;;;11.90;100.00;100252.44;5012640;28;20506;-76
2022/09/24 06:58:22;;;;;;;10.82;6.30;;;;;;;12.08;100.00;100239.84;5013382;28;20046;-76
2022/09/24 07:00:53;;;;;;;14.80;6.25;;;;;;;12.21;100.00;100243.91;5024709;28;20029;-75
2022/09/24 07:03:21;;;;;;;14.82;6.53;;;;;;;12.34;100.00;100252.13;5048600;28;20049;-73
2022/09/24 07:05:47;;;;;;;14.13;5.82;;;;;;;12.47;100.00;100257.44;5032161;28;20029;-76
2022/09/24 07:08:15;;;;;;;13.77;7.03;;;;;;;12.57;100.00;100250.25;5033704;28;20025;-76
2022/09/24 07:10:45;;;;;;;19.40;5.80;;;;;;;12.71;100.00;100249.31;5036370;28;20040;-77
2022/09/24 07:13:13;;;;;;;10.00;5.80;;;;;;;12.86;100.00;100255.69;5018742;28;20053;-79
2022/09/24 07:15:40;;;;;;;21.17;7.50;;;;;;;13.08;100.00;100260.81;5035787;28;20104;-76
2022/09/24 07:18:10;;;;;;;11.50;6.07;;;;;;;13.29;100.00;100255.72;4999706;28;20072;-76
2022/09/24 07:20:36;;;;;;;9.77;5.50;;;;;;;13.45;100.00;100264.41;4983486;28;20037;-76
2022/09/24 07:23:11;;;;;;;8.05;5.53;;;;;;;13.63;100.00;100268.97;4999931;28;20033;-74
2022/09/24 07:25:38;;;;;;;19.55;7.47;;;;;;;13.83;100.00;100274.56;5016150;28;20058;-75
2022/09/24 07:28:08;;;;;;;9.68;5.40;;;;;;;13.93;100.00;100270.16;5016359;28;20109;-75
2022/09/24 07:30:34;;;;;;;9.82;5.43;;;;;;;14.04;100.00;100277.22;5000120;28;20034;-76
2022/09/24 07:33:01;;;;;;;8.02;5.70;;;;;;;14.16;100.00;100276.75;5032643;28;20177;-75
2022/09/24 07:35:27;;;;;;;76.25;13.75;;;;;;;14.34;100.00;100284.88;5016125;28;20546;-76
2022/09/24 07:38:01;;;;;;;8.15;5.47;;;;;;;14.57;100.00;100285.69;5048843;28;20025;-78
2022/09/24 07:40:36;;;;;;;9.70;4.90;;;;;;;14.81;100.00;100282.34;4999555;28;20467;-75
2022/09/24 07:43:02;;;;;;;11.13;5.63;;;;;;;14.97;100.00;100286.53;5015927;28;20091;-77
2022/09/24 07:45:28;;;;;;;9.75;5.40;;;;;;;15.06;100.00;100289.91;4983474;28;20030;-74
2022/09/24 07:47:58;;;;;;;18.58;5.78;;;;;;;15.11;100.00;100291.22;4999552;28;20022;-76
2022/09/24 07:50:24;;;;;;;10.70;5.82;;;;;;;15.13;99.48;100297.22;5015687;28;20029;-76
2022/09/24 07:52:50;;;;;;;16.40;6.22;;;;;;;15.12;98.00;100295.66;4998906;28;20033;-73
2022/09/24 07:55:18;;;;;;;8.40;4.82;;;;;;;15.12;96.41;100289.91;5015144;28;20042;-73
2022/09/24 07:57:51;;;;;;;6.07;4.57;;;;;;;15.13;95.79;100295.13;4998610;28;20028;-73
2022/09/24 08:00:20;;;;;;;7.22;4.93;;;;;;;15.13;95.32;100297.22;5015381;28;20034;-73
2022/09/24 08:02:46;;;;;;;9.93;4.57;;;;;;;15.24;96.30;100292.25;5015040;28;20057;-73
2022/09/24 08:05:16;;;;;;;8.48;4.70;;;;;;;15.46;97.11;100291.41;5014854;28;20109;-73
2022/09/24 08:07:51;;;;;;;12.27;5.85;;;;;;;15.67;95.46;100283.25;5015372;28;20042;-73
2022/09/24 08:10:18;;;;;;;10.70;4.60;;;;;;;15.94;94.31;100288.13;5014802;28;20045;-72
2022/09/24 08:12:44;;;;;;;9.18;5.25;;;;;;;16.24;93.43;100279.59;5014865;28;20029;-71
2022/09/24 08:15:10;;;;;;;9.57;4.80;;;;;;;16.60;93.34;100277.50;4998382;28;20029;-71
2022/09/24 08:17:35;;;;;;;6.95;4.60;;;;;;;17.00;90.63;100273.00;5015856;28;20043;-71
2022/09/24 08:20:01;;;;;;;8.75;5.07;;;;;;;17.40;88.73;100265.50;5022738;28;20386;-72
2022/09/24 08:22:26;;;;;;;7.85;4.55;;;;;;;17.85;83.68;100271.56;5035278;28;20052;-72
2022/09/24 08:24:53;;;;;;;5.10;4.00;;;;;;;18.16;81.28;100270.13;5034228;28;20025;-73
2022/09/24 08:27:22;;;;;;;8.02;3.97;;;;;;;18.36;78.97;100275.38;5034305;28;20029;-72
2022/09/24 08:29:49;;;;;;;5.65;3.70;;;;;;;18.55;76.61;100266.66;5034218;28;20034;-72
2022/09/24 08:32:16;;;;;;;5.25;4.32;;;;;;;18.71;74.25;100267.75;5034392;28;20029;-74
2022/09/24 08:34:44;;;;;;;8.55;4.15;;;;;;;18.84;73.69;100261.97;5035646;28;20025;-72
2022/09/24 08:37:11;;;;;;;5.38;3.72;;;;;;;18.91;70.47;100267.13;5050657;28;20105;-72
2022/09/24 08:39:36;;;;;;;7.65;3.80;;;;;;;18.95;70.97;100256.00;5035501;28;20064;-73
2022/09/24 08:42:05;;;;;;;6.35;3.55;;;;;;;19.16;70.35;100268.56;5034152;28;20045;-72
2022/09/24 08:47:53;;;;;;;5.78;3.70;;;;;;;19.45;64.72;100258.81;5034330;28;20068;-72
2022/09/24 08:50:30;;;;;;;4.30;2.80;;;;;;;19.62;64.59;100258.44;5033759;28;20386;-72
2022/09/24 08:53:13;;;;;;;4.88;2.80;;;;;;;19.85;62.09;100265.38;5050537;28;20417;-73
2022/09/24 08:55:46;;;;;;;7.03;2.80;;;;;;;20.03;61.30;100269.50;5035809;28;20118;-76
2022/09/24 08:58:32;;;;;;;8.05;2.90;;;;;;;20.21;60.47;100268.56;5018789;28;20104;-80
2022/09/24 09:01:18;;;;;;;5.40;2.72;;;;;;;20.35;59.25;100264.28;5035479;28;20039;-81
2022/09/24 09:04:20;;;;;;;4.35;2.88;;;;;;;20.42;57.26;100270.72;5034390;28;20450;-75
2022/09/24 09:07:16;;;;;;;5.40;3.58;;;;;;;20.27;56.17;100275.03;5033865;28;20387;-75
2022/09/24 09:10:00;;;;;;;6.95;3.08;;;;;;;20.23;56.42;100280.41;5034143;28;20098;-73
2022/09/24 09:12:33;;;;;;;5.45;3.00;;;;;;;20.10;54.88;100279.66;5033872;28;20033;-74
2022/09/24 09:15:15;;;;;;;14.43;4.45;;;;;;;19.98;55.71;100276.19;5034866;28;20025;-74
2022/09/24 09:17:44;;;;;;;3.53;2.92;;;;;;;19.86;54.58;100274.81;5017730;28;20028;-77
2022/09/24 09:20:18;;;;;;;11.65;4.88;;;;;;;19.90;55.68;100273.19;5035357;28;20025;-75
2022/09/24 09:22:53;;;;;;;7.05;2.75;;;;;;;19.94;55.98;100272.84;5066611;28;20494;-78
2022/09/24 09:25:23;;;;;;;8.38;3.90;;;;;;;19.88;55.45;100269.25;5034913;28;20026;-79
2022/09/24 09:28:13;;;;;;;8.68;3.75;;;;;;;19.84;56.61;100266.72;5066990;28;20033;-78
2022/09/24 09:31:05;;;;;;;9.07;3.65;;;;;;;19.81;56.70;100264.13;5034119;28;20053;-79
2022/09/24 09:33:58;;;;;;;8.40;3.33;;;;;;;19.67;56.53;100269.16;5036270;28;20037;-75
2022/09/24 09:36:40;;;;;;;7.80;3.53;;;;;;;19.55;56.82;100276.53;5035199;28;20029;-76
2022/09/24 09:39:44;;;;;;;9.57;3.95;;;;;;;19.39;56.05;100269.72;5029632;28;20060;-80
2022/09/24 09:42:38;;;;;;;4.13;2.83;;;;;;;19.20;56.24;100271.13;5037629;28;20037;-76
2022/09/24 09:45:34;;;;;;;8.85;3.55;;;;;;;19.01;56.75;100268.28;5014477;28;20021;-78
2022/09/24 09:48:02;;;;;;;8.68;3.50;;;;;;;18.79;57.19;100266.53;5025399;28;20080;-80
2022/09/24 09:50:39;;;;;;;7.10;4.03;;;;;;;18.71;57.72;100267.75;5065761;28;20033;-79
2022/09/24 09:53:19;;;;;;;8.20;3.67;;;;;;;18.54;57.09;100271.66;5049758;28;20029;-81
2022/09/24 09:55:56;;;;;;;3.50;2.33;;;;;;;18.36;56.86;100274.59;5032734;28;20397;-80
2022/09/24 09:58:27;;;;;;;6.65;3.00;;;;;;;18.19;58.30;100264.00;5034742;28;20033;-79
2022/09/24 10:01:14;;;;;;;5.05;2.78;;;;;;;18.21;60.28;100270.03;4999057;28;20033;-78
2022/09/24 10:03:45;;;;;;;4.68;2.83;;;;;;;18.25;60.27;100263.94;5051139;28;20542;-77
2022/09/24 10:06:21;;;;;;;8.20;3.25;;;;;;;18.31;60.43;100261.78;5014279;28;20104;-78
2022/09/24 10:08:46;;;;;;;7.90;3.10;;;;;;;18.35;60.16;100265.13;4997937;28;20049;-76
2022/09/24 10:11:15;;;;;;;4.90;2.65;;;;;;;18.35;60.91;100270.91;5016092;28;20026;-76
2022/09/24 10:14:20;;;;;;;4.82;2.65;;;;;;;18.38;59.82;100260.34;5016492;28;20053;-77
2022/09/24 10:17:17;;;;;;;5.38;2.67;;;;;;;18.35;59.48;100262.22;5012629;28;20037;-75
2022/09/24 10:19:49;;;;;;;3.22;2.47;;;;;;;18.38;59.39;100258.22;5011660;28;20099;-76
2022/09/24 10:22:25;;;;;;;5.40;2.08;;;;;;;18.46;58.45;100252.59;5010334;28;20056;-79
2022/09/24 10:25:00;;;;;;;5.43;2.50;;;;;;;18.54;57.71;100263.00;4995559;28;20042;-79
2022/09/24 10:27:33;;;;;;;4.82;2.90;;;;;;;18.60;56.86;100260.00;5044405;28;20076;-77
2022/09/24 10:32:57;;;;;;;5.95;2.55;;;;;;;19.11;58.25;100263.63;5027334;28;20096;-77
2022/09/24 10:35:37;;;;;;;4.22;2.88;;;;;;;19.35;56.72;100269.28;5012758;28;20025;-78
2022/09/24 10:38:18;;;;;;;5.35;2.30;;;;;;;19.44;55.09;100276.75;5013896;28;20080;-77
2022/09/24 10:40:44;;;;;;;2.45;2.25;;;;;;;19.39;54.81;100266.81;5014089;28;20502;-77
2022/09/24 10:43:16;;;;;;;5.60;2.75;;;;;;;19.40;53.90;100270.50;5013992;28;20073;-77
2022/09/24 10:46:13;;;;;;;3.75;2.45;;;;;;;19.46;54.58;100266.13;5033324;28;20030;-77
2022/09/24 10:48:51;;;;;;;4.72;3.20;;;;;;;19.48;55.83;100263.47;5033413;28;20036;-76
2022/09/24 10:51:22;;;;;;;4.35;2.22;;;;;;;19.59;55.25;100270.38;5018121;28;20099;-76
2022/09/24 10:54:04;;;;;;;3.67;2.63;;;;;;;19.65;53.86;100268.16;5017899;28;20033;-76
2022/09/24 10:56:34;;;;;;;;;;;;;;;19.65;52.42;100271.06;5017269;28;20021;-76
2022/09/24 10:59:57;;;;;;;5.25;3.00;;;;;;;19.64;52.92;100273.19;5017985;28;19910;-76
2022/09/24 11:02:50;;;;;;;6.10;2.67;;;;;;;19.67;53.13;100277.06;4995610;28;20019;-77
2022/09/24 11:05:36;;;;;;;5.13;3.13;;;;;;;19.65;52.16;100268.16;4995817;28;20034;-78
2022/09/24 11:08:40;;;;;;;5.70;3.03;;;;;;;19.63;52.80;100262.13;4997929;28;20525;-77
2022/09/24 11:11:14;;;;;;;7.05;2.78;;;;;;;19.53;52.67;100259.69;4996265;28;20022;-74
2022/09/24 11:13:53;;;;;;;47.10;5.90;;;;;;;19.39;53.64;100263.13;5006233;28;20466;-74
2022/09/24 11:16:48;;;;;;;40.58;5.18;;;;;;;19.23;54.39;100255.53;5016053;28;20053;-76
2022/09/24 11:19:22;;;;;;;11.10;3.00;;;;;;;19.08;54.23;100248.13;5017369;28;20103;-76
2022/09/24 11:22:15;;;;;;;9.75;3.92;;;;;;;18.96;53.52;100249.66;5015633;28;20050;-76
2022/09/24 11:25:00;;;;;;;8.98;2.20;;;;;;;18.82;53.61;100241.50;5016314;28;20026;-77
2022/09/24 11:27:55;;;;;;;4.22;2.33;;;;;;;18.66;55.58;100240.44;5016515;28;20021;-77
2022/09/24 11:30:35;;;;;;;6.45;2.53;;;;;;;18.59;54.87;100244.75;5049139;28;20418;-75
2022/09/24 11:33:45;;;;;;;7.47;2.28;;;;;;;18.64;60.52;100237.31;5016287;28;20080;-81
2022/09/24 11:36:53;;;;;;;3.80;2.60;;;;;;;18.62;56.51;100240.75;4999284;28;20050;-78
2022/09/24 11:39:33;;;;;;;4.72;2.28;;;;;;;18.51;54.73;100245.94;5015319;28;20037;-79
2022/09/24 11:42:18;;;;;;;2.25;2.00;;;;;;;18.48;55.43;100242.03;5017661;28;20049;-80
2022/09/24 11:45:02;;;;;;;2.67;2.17;;;;;;;18.58;56.47;100236.63;5017814;28;20109;-79
2022/09/24 11:47:52;;;;;;;4.68;2.38;;;;;;;18.64;55.31;100241.00;5017243;28;20021;-81